createdAt,value
2023-03-07T00:00:17.248Z,7.10
2023-03-07T00:02:44.406Z,7.10
2023-03-07T00:05:12.632Z,7.12
2023-03-07T00:07:39.698Z,7.38
2023-03-07T00:10:07.395Z,7.26
2023-03-07T00:12:34.435Z,7.20
2023-03-07T00:15:01.573Z,6.88
2023-03-07T00:17:28.715Z,6.79
2023-03-07T00:19:55.936Z,6.83
2023-03-07T00:22:23.163Z,7.15
2023-03-07T00:24:50.239Z,7.05
2023-03-07T00:27:17.375Z,7.03
2023-03-07T00:29:44.509Z,7.16
2023-03-07T00:32:11.622Z,7.14
2023-03-07T00:34:38.706Z,7.09
2023-03-07T00:37:05.859Z,6.95
2023-03-07T00:42:00.365Z,5.77
2023-03-07T00:44:30.104Z,6.32
2023-03-07T00:46:57.261Z,6.52
2023-03-07T00:49:24.401Z,6.62
2023-03-07T00:51:51.488Z,6.35
2023-03-07T00:54:18.936Z,6.31
2023-03-07T00:56:46.117Z,6.07
2023-03-07T00:59:13.241Z,6.51
2023-03-07T01:01:41.263Z,6.56
2023-03-07T01:04:08.398Z,6.40
2023-03-07T01:06:36.003Z,6.83
2023-03-07T01:09:07.494Z,6.86
2023-03-07T01:11:36.535Z,6.79
2023-03-07T01:14:05.890Z,6.64
2023-03-07T01:16:37.272Z,6.85
2023-03-07T01:19:07.411Z,6.76
2023-03-07T01:21:39.887Z,7.16
2023-03-07T01:24:10.426Z,7.02
2023-03-07T01:26:37.656Z,7.05
2023-03-07T01:29:06.720Z,6.93
2023-03-07T01:31:37.377Z,6.84
2023-03-07T01:34:05.805Z,6.77
2023-03-07T01:36:37.123Z,6.87
2023-03-07T01:39:17.648Z,7.17
2023-03-07T01:42:10.903Z,7.05
2023-03-07T01:45:07.862Z,6.88
2023-03-07T01:47:44.236Z,6.72
2023-03-07T01:50:15.516Z,6.80
2023-03-07T01:52:49.942Z,7.13
2023-03-07T01:55:43.261Z,7.00
2023-03-07T01:58:16.971Z,6.91
2023-03-07T02:00:45.790Z,6.71
2023-03-07T02:03:15.560Z,6.69
2023-03-07T02:05:54.062Z,6.80
2023-03-07T02:08:24.794Z,7.20
2023-03-07T02:10:52.485Z,7.17
2023-03-07T02:13:19.615Z,7.06
2023-03-07T02:15:47.560Z,7.03
2023-03-07T02:18:18.365Z,6.81
2023-03-07T02:21:09.497Z,6.97
2023-03-07T02:23:40.012Z,6.93
2023-03-07T02:26:28.635Z,7.05
2023-03-07T02:28:56.390Z,6.94
2023-03-07T02:31:23.739Z,6.93
2023-03-07T02:33:51.036Z,6.81
2023-03-07T02:36:31.041Z,6.75
2023-03-07T02:39:18.141Z,7.09
2023-03-07T02:41:45.538Z,7.05
2023-03-07T02:44:21.871Z,6.92
2023-03-07T02:46:49.258Z,6.95
2023-03-07T02:49:18.174Z,6.97
2023-03-07T02:51:45.298Z,6.86
2023-03-07T02:54:12.791Z,6.62
2023-03-07T02:56:40.222Z,6.77
2023-03-07T02:59:07.446Z,6.71
2023-03-07T03:01:35.034Z,6.74
2023-03-07T03:04:02.333Z,6.71
2023-03-07T03:06:29.475Z,6.77
2023-03-07T03:08:57.581Z,6.93
2023-03-07T03:11:26.772Z,6.89
2023-03-07T03:13:54.325Z,6.41
2023-03-07T03:16:22.296Z,6.60
2023-03-07T03:18:49.535Z,6.74
2023-03-07T03:21:16.701Z,6.43
2023-03-07T03:23:43.782Z,6.90
2023-03-07T03:26:11.784Z,6.01
2023-03-07T03:28:40.612Z,5.87
2023-03-07T03:31:15.384Z,6.04
2023-03-07T03:33:44.318Z,6.11
2023-03-07T03:36:15.600Z,6.40
2023-03-07T03:38:45.956Z,6.41
2023-03-07T03:41:18.371Z,6.67
2023-03-07T03:43:48.119Z,6.64
2023-03-07T03:46:17.128Z,6.52
2023-03-07T03:48:44.690Z,6.43
2023-03-07T03:51:17.222Z,6.40
2023-03-07T03:53:44.400Z,6.76
2023-03-07T03:56:14.372Z,6.92
2023-03-07T03:58:43.004Z,6.84
2023-03-07T04:01:12.012Z,6.65
2023-03-07T04:03:45.261Z,6.62
2023-03-07T04:06:24.765Z,6.52
2023-03-07T04:08:53.525Z,6.45
2023-03-07T04:11:21.596Z,6.25
2023-03-07T04:13:48.896Z,6.27
2023-03-07T04:16:17.473Z,5.94
2023-03-07T04:18:44.875Z,6.03
2023-03-07T04:21:13.037Z,6.24
2023-03-07T04:23:41.133Z,6.34
2023-03-07T04:26:10.455Z,6.36
2023-03-07T04:28:46.115Z,5.71
2023-03-07T04:31:23.322Z,5.59
2023-03-07T04:33:51.957Z,5.93
2023-03-07T04:36:20.215Z,5.88
2023-03-07T04:38:48.774Z,6.26
2023-03-07T04:41:22.308Z,6.37
2023-03-07T04:43:53.669Z,5.93
2023-03-07T04:46:22.415Z,5.82
2023-03-07T04:48:49.701Z,6.31
2023-03-07T04:51:17.069Z,6.62
2023-03-07T04:53:44.644Z,6.40
2023-03-07T04:56:12.606Z,6.21
2023-03-07T04:58:41.462Z,6.22
2023-03-07T05:01:08.859Z,6.31
2023-03-07T05:03:36.339Z,6.45
2023-03-07T05:06:06.727Z,6.68
2023-03-07T05:08:34.554Z,6.94
2023-03-07T05:11:02.476Z,7.07
2023-03-07T05:13:30.635Z,6.86
2023-03-07T05:15:59.473Z,7.05
2023-03-07T05:18:28.594Z,7.10
2023-03-07T05:20:57.598Z,7.36
2023-03-07T05:23:25.782Z,7.42
2023-03-07T05:25:54.967Z,7.64
2023-03-07T05:28:22.225Z,7.53
2023-03-07T05:30:49.789Z,7.56
2023-03-07T05:33:17.004Z,7.37
2023-03-07T05:35:44.479Z,7.54
2023-03-07T05:38:12.959Z,7.96
2023-03-07T05:40:40.982Z,7.65
2023-03-07T05:43:09.800Z,7.62
2023-03-07T05:45:37.691Z,7.98
2023-03-07T05:48:05.799Z,8.17
2023-03-07T05:50:32.963Z,8.29
2023-03-07T05:53:00.231Z,8.50
2023-03-07T05:55:30.416Z,8.47
2023-03-07T05:57:57.851Z,8.32
2023-03-07T06:00:25.750Z,8.53
2023-03-07T06:02:57.078Z,8.79
2023-03-07T06:05:25.527Z,9.08
2023-03-07T06:07:53.544Z,8.91
2023-03-07T06:10:21.352Z,9.21
2023-03-07T06:12:53.739Z,9.32
2023-03-07T06:15:24.352Z,9.41
2023-03-07T06:17:56.828Z,9.40
2023-03-07T06:20:24.684Z,9.70
2023-03-07T06:22:54.742Z,9.91
2023-03-07T06:25:22.147Z,9.90
2023-03-07T06:27:50.191Z,9.53
2023-03-07T06:30:17.757Z,9.91
2023-03-07T06:32:45.526Z,9.97
2023-03-07T06:35:12.993Z,10.21
2023-03-07T06:37:40.477Z,10.47
2023-03-07T06:40:09.652Z,10.45
2023-03-07T06:42:38.981Z,10.50
2023-03-07T06:45:08.534Z,10.49
2023-03-07T06:47:35.799Z,10.63
2023-03-07T06:50:05.342Z,10.75
2023-03-07T06:52:33.844Z,11.05
2023-03-07T06:55:01.505Z,10.86
2023-03-07T06:57:34.067Z,10.76
2023-03-07T07:00:02.832Z,10.77
2023-03-07T07:02:32.898Z,10.87
2023-03-07T07:05:01.352Z,11.18
2023-03-07T07:07:29.951Z,11.09
2023-03-07T07:09:58.348Z,10.92
2023-03-07T07:12:25.623Z,10.89
2023-03-07T07:14:52.860Z,10.94
2023-03-07T07:17:20.614Z,11.00
2023-03-07T07:19:47.996Z,11.45
2023-03-07T07:22:18.226Z,11.38
2023-03-07T07:24:45.408Z,11.51
2023-03-07T07:27:12.736Z,11.66
2023-03-07T07:29:40.431Z,11.78
2023-03-07T07:32:09.321Z,11.85
2023-03-07T07:34:36.642Z,11.81
2023-03-07T07:37:04.249Z,11.50
2023-03-07T07:39:31.509Z,11.50
2023-03-07T07:41:58.996Z,11.51
2023-03-07T07:44:31.234Z,11.50
2023-03-07T07:47:01.851Z,11.92
2023-03-07T07:49:29.197Z,11.98
2023-03-07T07:51:56.448Z,11.63
2023-03-07T07:54:23.955Z,11.83
2023-03-07T07:56:51.119Z,12.28
2023-03-07T07:59:19.677Z,12.54
2023-03-07T08:01:47.121Z,12.80
2023-03-07T08:04:14.333Z,12.61
2023-03-07T08:06:41.519Z,12.54
2023-03-07T08:09:09.232Z,12.68
2023-03-07T08:11:36.336Z,12.75
2023-03-07T08:14:03.739Z,12.94
2023-03-07T08:16:31.005Z,13.04
2023-03-07T08:18:58.585Z,12.84
2023-03-07T08:21:26.763Z,13.24
2023-03-07T08:23:55.442Z,13.30
2023-03-07T08:26:23.042Z,13.38
2023-03-07T08:28:50.392Z,13.65
2023-03-07T08:31:20.235Z,13.81
2023-03-07T08:33:48.094Z,13.92
2023-03-07T08:36:16.284Z,14.15
2023-03-07T08:38:44.271Z,14.20
2023-03-07T08:41:11.384Z,14.20
2023-03-07T08:43:39.446Z,14.28
2023-03-07T08:46:06.837Z,13.97
2023-03-07T08:48:34.019Z,14.20
2023-03-07T08:51:07.339Z,14.11
2023-03-07T08:53:34.612Z,13.99
2023-03-07T08:56:06.305Z,13.96
2023-03-07T08:58:33.574Z,14.40
2023-03-07T09:01:00.908Z,14.54
2023-03-07T09:03:28.042Z,14.11
2023-03-07T09:05:55.469Z,14.70
2023-03-07T09:08:22.613Z,14.66
2023-03-07T09:10:49.884Z,14.95
2023-03-07T09:13:18.641Z,15.19
2023-03-07T09:15:46.012Z,15.40
2023-03-07T09:18:13.432Z,15.33
2023-03-07T09:20:41.132Z,15.45
2023-03-07T09:23:08.663Z,15.35
2023-03-07T09:25:38.204Z,15.43
2023-03-07T09:28:05.586Z,15.44
2023-03-07T09:30:32.731Z,15.21
2023-03-07T09:33:00.139Z,15.15
2023-03-07T09:35:27.243Z,15.02
2023-03-07T09:37:54.479Z,15.51
2023-03-07T09:40:24.600Z,15.64
2023-03-07T09:43:23.494Z,15.68
2023-03-07T10:17:57.293Z,16.24
2023-03-07T10:20:33.246Z,16.54
2023-03-07T10:23:22.452Z,16.56
2023-03-07T10:26:06.055Z,16.58
2023-03-07T10:28:36.644Z,16.43
2023-03-07T10:31:29.217Z,16.83
2023-03-07T10:33:56.473Z,16.99
2023-03-07T10:36:55.243Z,17.31
2023-03-07T10:39:54.853Z,17.44
2023-03-07T10:42:24.192Z,17.84
2023-03-07T10:44:52.319Z,17.99
2023-03-07T10:47:22.959Z,18.03
2023-03-07T10:49:55.051Z,17.17
2023-03-07T10:52:36.119Z,17.82
2023-03-07T10:55:33.269Z,17.52
2023-03-07T10:58:19.975Z,17.95
2023-03-07T11:01:07.308Z,17.69
2023-03-07T11:03:55.923Z,17.97
2023-03-07T11:06:37.981Z,18.11
2023-03-07T11:09:17.087Z,17.99
2023-03-07T11:11:54.169Z,18.11
2023-03-07T11:14:22.222Z,18.20
2023-03-07T11:16:55.702Z,18.25
2023-03-07T11:19:40.073Z,18.33
2023-03-07T11:22:29.331Z,18.22
2023-03-07T11:25:00.836Z,18.43
2023-03-07T11:27:53.718Z,17.61
2023-03-07T11:30:26.630Z,18.02
2023-03-07T11:33:14.092Z,18.16
2023-03-07T11:35:53.312Z,18.30
2023-03-07T11:38:34.635Z,18.60
2023-03-07T11:41:11.762Z,17.47
2023-03-07T11:43:50.758Z,17.48
2023-03-07T11:46:43.540Z,17.87
2023-03-07T11:49:20.658Z,17.99
2023-03-07T11:51:54.360Z,18.17
2023-03-07T11:55:09.218Z,18.11
2023-03-07T11:57:59.306Z,18.14
2023-03-07T12:00:49.042Z,17.66
2023-03-07T12:03:16.129Z,17.71
2023-03-07T12:06:20.895Z,17.44
2023-03-07T12:08:59.730Z,17.60
2023-03-07T12:11:48.230Z,17.38
2023-03-07T12:14:36.885Z,17.59
2023-03-07T12:17:25.299Z,17.54
2023-03-07T12:20:07.202Z,17.20
2023-03-07T12:22:44.105Z,17.49
2023-03-07T12:25:49.764Z,17.38
2023-03-07T12:28:32.567Z,17.05
2023-03-07T12:31:24.845Z,17.09
2023-03-07T12:34:15.172Z,17.03
2023-03-07T12:36:48.622Z,16.84
2023-03-07T12:39:18.772Z,16.73
2023-03-07T12:41:52.969Z,16.98
2023-03-07T12:44:30.194Z,16.67
2023-03-07T12:47:21.569Z,16.92
2023-03-07T12:50:02.596Z,16.81
2023-03-07T12:52:50.988Z,16.93
2023-03-07T12:55:24.317Z,17.02
2023-03-07T12:58:13.308Z,16.93
2023-03-07T13:00:48.361Z,16.61
2023-03-07T13:03:51.137Z,16.76
2023-03-07T13:06:20.881Z,16.95
2023-03-07T13:08:58.402Z,16.95
2023-03-07T13:11:28.909Z,17.15
2023-03-07T13:14:01.286Z,17.19
2023-03-07T13:16:36.954Z,17.09
2023-03-07T13:19:39.217Z,16.97
2023-03-07T13:22:15.553Z,17.06
2023-03-07T13:24:53.355Z,17.10
2023-03-07T13:27:25.537Z,16.28
2023-03-07T13:30:16.306Z,15.30
2023-03-07T13:32:49.634Z,14.33
2023-03-07T13:35:31.743Z,13.84
2023-03-07T13:38:15.414Z,13.61
2023-03-07T13:40:46.709Z,13.44
2023-03-07T13:43:20.231Z,13.35
2023-03-07T13:45:50.812Z,13.55
2023-03-07T13:48:20.498Z,13.60
2023-03-07T13:50:56.263Z,13.81
2023-03-07T13:53:30.215Z,13.82
2023-03-07T13:56:16.846Z,13.88
2023-03-07T13:58:49.994Z,14.03
2023-03-07T14:01:20.899Z,14.22
2023-03-07T14:04:05.321Z,14.33
2023-03-07T14:06:38.816Z,14.15
2023-03-07T14:09:08.683Z,14.31
2023-03-07T14:11:38.486Z,14.50
2023-03-07T14:14:15.857Z,14.76
2023-03-07T14:17:13.472Z,14.56
2023-03-07T14:19:41.482Z,15.29
2023-03-07T14:22:37.123Z,15.17
2023-03-07T14:25:27.704Z,15.55
2023-03-07T14:28:00.048Z,15.77
2023-03-07T14:30:33.185Z,15.96
2023-03-07T14:33:01.461Z,16.11
2023-03-07T14:35:44.243Z,15.92
2023-03-07T14:38:21.612Z,15.85
2023-03-07T14:40:57.705Z,16.06
2023-03-07T14:43:40.003Z,15.95
2023-03-07T14:46:12.871Z,15.51
2023-03-07T14:48:55.253Z,15.55
2023-03-07T14:51:26.158Z,15.11
2023-03-07T14:53:53.443Z,15.10
2023-03-07T14:56:32.326Z,14.95
2023-03-07T14:59:03.257Z,14.77
2023-03-07T15:01:35.505Z,14.95
2023-03-07T15:04:03.722Z,14.14
2023-03-07T15:06:31.416Z,14.51
2023-03-07T15:09:00.677Z,14.39
2023-03-07T15:11:30.693Z,14.41
2023-03-07T15:13:59.670Z,14.44
2023-03-07T15:16:50.507Z,14.44
2023-03-07T15:19:40.692Z,14.24
2023-03-07T15:22:18.733Z,13.97
2023-03-07T15:24:49.104Z,13.94
2023-03-07T15:27:23.365Z,13.89
2023-03-07T15:29:50.672Z,14.02
2023-03-07T15:32:47.255Z,13.81
2023-03-07T15:35:18.886Z,13.62
2023-03-07T15:38:07.037Z,13.76
2023-03-07T15:40:36.677Z,13.65
2023-03-07T15:43:04.696Z,13.46
2023-03-07T15:45:36.090Z,12.70
2023-03-07T15:48:26.510Z,13.12
2023-03-07T15:50:56.833Z,13.16
2023-03-07T15:53:27.787Z,13.07
2023-03-07T15:55:58.280Z,13.32
2023-03-07T15:58:27.260Z,13.11
2023-03-07T16:01:23.488Z,12.97
2023-03-07T16:03:53.614Z,13.02
2023-03-07T16:06:32.658Z,12.89
2023-03-07T16:08:59.997Z,13.06
2023-03-07T16:11:27.133Z,12.95
2023-03-07T16:13:54.324Z,12.65
2023-03-07T16:16:27.451Z,12.51
2023-03-07T16:18:58.926Z,12.62
2023-03-07T16:21:26.619Z,12.88
2023-03-07T16:23:53.731Z,12.85
2023-03-07T16:26:25.062Z,12.74
2023-03-07T16:28:53.810Z,12.58
2023-03-07T16:31:21.788Z,12.40
2023-03-07T16:33:49.334Z,12.47
2023-03-07T16:36:16.759Z,12.63
2023-03-07T16:38:44.508Z,12.46
2023-03-07T16:41:22.329Z,12.39
2023-03-07T16:43:58.056Z,12.34
2023-03-07T16:46:26.275Z,12.30
2023-03-07T16:48:53.359Z,12.47
2023-03-07T16:51:23.104Z,12.44
2023-03-07T16:53:51.573Z,12.21
2023-03-07T16:56:33.629Z,12.01
2023-03-07T16:59:01.522Z,12.07
2023-03-07T17:01:28.905Z,12.19
2023-03-07T17:03:59.069Z,12.23
2023-03-07T17:06:38.364Z,12.10
2023-03-07T17:09:09.646Z,11.88
2023-03-07T17:11:39.032Z,11.83
2023-03-07T17:14:08.820Z,11.90
2023-03-07T17:16:41.400Z,12.08
2023-03-07T17:19:26.062Z,11.93
2023-03-07T17:21:53.525Z,11.58
2023-03-07T17:24:20.816Z,11.48
2023-03-07T17:26:49.257Z,11.50
2023-03-07T17:29:30.779Z,11.55
2023-03-07T17:31:58.103Z,11.48
2023-03-07T17:34:30.457Z,11.34
2023-03-07T17:36:58.205Z,11.19
2023-03-07T17:39:25.333Z,11.20
2023-03-07T17:41:52.404Z,11.52
2023-03-07T17:44:19.472Z,11.61
2023-03-07T17:46:46.699Z,11.59
2023-03-07T17:49:14.068Z,11.38
2023-03-07T17:51:41.190Z,11.23
2023-03-07T17:54:11.222Z,11.25
2023-03-07T17:56:38.323Z,11.53
2023-03-07T17:59:05.908Z,11.49
2023-03-07T18:01:35.070Z,11.41
2023-03-07T18:04:04.076Z,11.43
2023-03-07T18:06:37.196Z,11.29
2023-03-07T18:09:06.910Z,11.48
2023-03-07T18:11:35.406Z,11.43
2023-03-07T18:14:03.814Z,11.35
2023-03-07T18:16:31.415Z,11.23
2023-03-07T18:19:01.196Z,11.36
2023-03-07T18:21:30.093Z,11.44
2023-03-07T18:23:58.186Z,11.49
2023-03-07T18:26:25.440Z,11.38
2023-03-07T18:28:54.001Z,11.17
2023-03-07T18:31:28.834Z,11.13
2023-03-07T18:33:56.812Z,11.12
2023-03-07T18:36:25.710Z,11.23
2023-03-07T18:38:52.999Z,11.13
2023-03-07T18:41:22.950Z,11.03
2023-03-07T18:43:50.733Z,10.90
2023-03-07T18:46:19.659Z,10.83
2023-03-07T18:48:47.225Z,10.85
2023-03-07T18:51:23.857Z,10.99
2023-03-07T18:53:52.314Z,10.90
2023-03-07T18:56:19.588Z,10.73
2023-03-07T18:58:46.836Z,10.64
2023-03-07T19:01:18.928Z,10.63
2023-03-07T19:03:48.679Z,10.85
2023-03-07T19:06:18.629Z,10.85
2023-03-07T19:08:46.015Z,10.74
2023-03-07T19:11:14.669Z,10.64
2023-03-07T19:13:42.954Z,10.75
2023-03-07T19:16:12.522Z,10.71
2023-03-07T19:18:40.747Z,10.87
2023-03-07T19:21:10.273Z,10.89
2023-03-07T19:23:38.133Z,10.81
2023-03-07T19:26:07.863Z,10.70
2023-03-07T19:28:35.772Z,10.56
2023-03-07T19:31:14.894Z,10.72
2023-03-07T19:33:42.356Z,10.64
2023-03-07T19:36:20.313Z,10.44
2023-03-07T19:38:49.228Z,10.46
2023-03-07T19:41:19.363Z,10.28
2023-03-07T19:43:47.240Z,10.41
2023-03-07T19:46:16.031Z,10.43
2023-03-07T19:48:46.236Z,10.44
2023-03-07T19:51:22.668Z,10.41
2023-03-07T19:53:50.366Z,10.38
2023-03-07T19:56:23.197Z,10.35
2023-03-07T19:58:50.964Z,10.43
2023-03-07T20:01:20.594Z,10.26
2023-03-07T20:03:48.340Z,10.37
2023-03-07T20:06:28.144Z,10.26
2023-03-07T20:08:56.534Z,10.12
2023-03-07T20:11:27.340Z,10.18
2023-03-07T20:13:56.480Z,10.41
2023-03-07T20:16:27.244Z,10.21
2023-03-07T20:18:54.684Z,10.22
2023-03-07T20:21:26.903Z,10.16
2023-03-07T20:23:56.400Z,10.20
2023-03-07T20:26:26.644Z,10.39
2023-03-07T20:28:56.378Z,10.34
2023-03-07T20:31:24.068Z,10.20
2023-03-07T20:33:51.456Z,10.26
2023-03-07T20:36:27.123Z,10.28
2023-03-07T20:38:56.714Z,10.33
2023-03-07T20:41:32.472Z,10.45
2023-03-07T20:44:02.723Z,10.38
2023-03-07T20:46:31.287Z,10.32
2023-03-07T20:49:00.176Z,10.14
2023-03-07T20:51:30.268Z,10.15
2023-03-07T20:54:01.485Z,10.29
2023-03-07T20:56:31.662Z,10.32
2023-03-07T20:59:00.025Z,10.16
2023-03-07T21:01:30.156Z,10.09
2023-03-07T21:04:00.860Z,10.06
2023-03-07T21:06:27.982Z,10.19
2023-03-07T21:08:55.221Z,10.24
2023-03-07T21:11:22.324Z,10.24
2023-03-07T21:13:50.024Z,10.18
2023-03-07T21:16:19.969Z,10.16
2023-03-07T21:18:47.823Z,10.17
2023-03-07T21:21:17.972Z,10.12
2023-03-07T21:23:45.913Z,10.29
2023-03-07T21:26:16.390Z,10.18
2023-03-07T21:28:43.968Z,10.04
2023-03-07T21:31:14.042Z,9.97
2023-03-07T21:33:43.596Z,9.97
2023-03-07T21:36:14.105Z,10.20
2023-03-07T21:38:41.860Z,10.26
2023-03-07T21:41:09.739Z,10.22
2023-03-07T21:43:36.886Z,10.09
2023-03-07T21:46:09.107Z,9.98
2023-03-07T21:48:36.516Z,10.16
2023-03-07T21:51:04.458Z,9.87
2023-03-07T21:53:32.117Z,9.67
2023-03-07T21:56:02.630Z,9.39
2023-03-07T21:58:31.187Z,9.54
2023-03-07T22:00:58.984Z,9.47
2023-03-07T22:03:28.430Z,9.10
2023-03-07T22:05:57.306Z,9.27
2023-03-07T22:08:24.597Z,8.53
2023-03-07T22:11:00.477Z,8.73
2023-03-07T22:13:28.651Z,9.13
2023-03-07T22:15:57.658Z,9.20
2023-03-07T22:18:25.089Z,9.42
2023-03-07T22:20:52.436Z,9.53
2023-03-07T22:23:19.561Z,9.29
2023-03-07T22:25:46.708Z,9.40
2023-03-07T22:28:16.838Z,9.50
2023-03-07T22:30:44.074Z,9.58
2023-03-07T22:33:11.321Z,9.68
2023-03-07T22:35:38.524Z,9.60
2023-03-07T22:38:05.636Z,9.57
2023-03-07T22:40:32.791Z,9.61
2023-03-07T22:42:59.838Z,9.64
2023-03-07T22:45:26.988Z,9.64
2023-03-07T22:47:54.116Z,8.82
2023-03-07T22:50:21.539Z,9.22
2023-03-07T22:52:48.622Z,9.31
2023-03-07T22:55:15.687Z,9.28
2023-03-07T22:57:42.819Z,9.43
2023-03-07T23:00:10.571Z,9.44
2023-03-07T23:02:37.651Z,8.91
2023-03-07T23:05:04.978Z,9.24
2023-03-07T23:07:32.044Z,9.12
2023-03-07T23:09:59.139Z,9.32
2023-03-07T23:12:26.252Z,9.09
2023-03-07T23:14:53.475Z,8.28
2023-03-07T23:17:21.467Z,8.64
2023-03-07T23:19:50.975Z,8.19
2023-03-07T23:22:18.146Z,8.76
2023-03-07T23:24:45.360Z,8.81
2023-03-07T23:27:12.466Z,8.33
2023-03-07T23:29:39.559Z,8.22
2023-03-07T23:32:06.858Z,7.95
2023-03-07T23:34:35.602Z,8.45
2023-03-07T23:37:02.725Z,8.64
2023-03-07T23:39:30.164Z,8.43
2023-03-07T23:41:57.292Z,7.53
2023-03-07T23:44:24.356Z,7.27
2023-03-07T23:46:51.499Z,6.89
2023-03-07T23:49:18.584Z,6.91
2023-03-07T23:51:45.721Z,6.79
2023-03-07T23:54:12.809Z,6.80
2023-03-07T23:56:40.038Z,6.60
2023-03-07T23:59:07.134Z,6.25
